Time;durP1;ratioP1;P1;durP2;ratioP2;P2;SDS_P1;SDS_P2;PMS_P1;PMS_P2;Temp;Humidity;BMP_temperature;BMP_pressure;BME280_temperature;BME280_humidity;BME280_pressure;Samples;Min_cycle;Max_cycle;Signal;HPM_P1;HPM_P2
2024/02/18 00:00:49;;;;;;;5.70;5.47;;;;;;;3.79;100.00;101816.25;5061119;28;20068;-79
2024/02/18 00:03:15;;;;;;;2.15;2.05;;;;;;;3.37;100.00;101727.63;5058982;28;20098;-82
2024/02/18 00:05:40;;;;;;;6.20;5.68;;;;;;;3.68;100.00;101796.66;5060265;28;20067;-83
2024/02/18 00:08:07;;;;;;;8.75;8.10;;;;;;;3.49;100.00;101771.47;5058280;28;20564;-83
2024/02/18 00:10:32;;;;;;;1.60;1.55;;;;;;;3.76;100.00;101803.09;5056251;28;20048;-83
2024/02/18 00:12:58;;;;;;;2.15;2.05;;;;;;;3.35;100.00;101713.69;5074791;28;20049;-81
2024/02/18 00:15:23;;;;;;;1.23;1.13;;;;;;;3.15;100.00;101684.16;5066306;28;20086;-83
2024/02/18 00:17:49;;;;;;;15.50;14.32;;;;;;;3.68;100.00;101775.88;5056762;28;20033;-81
2024/02/18 00:20:19;;;;;;;0.40;0.40;;;;;;;3.56;100.00;101794.31;5058181;28;20834;-83
2024/02/18 00:22:45;;;;;;;3.53;3.33;;;;;;;3.68;100.00;101794.03;5054972;28;20094;-83
2024/02/18 00:25:11;;;;;;;2.30;2.17;;;;;;;3.60;100.00;101792.75;5060141;28;20084;-80
2024/02/18 00:27:37;;;;;;;16.20;5.78;;;;;;;3.62;100.00;101785.06;5058009;28;20132;-82
2024/02/18 00:30:04;;;;;;;1.05;0.50;;;;;;;3.32;100.00;101735.97;5078680;28;20115;-82
2024/02/18 00:32:29;;;;;;;1.40;1.30;;;;;;;2.76;100.00;101649.28;5053961;28;20057;-80
2024/02/18 00:34:56;;;;;;;2.60;2.47;;;;;;;3.51;100.00;101771.53;5064100;28;20040;-82
2024/02/18 00:37:24;;;;;;;0.25;0.25;;;;;;;3.44;100.00;101756.47;5057671;28;20041;-82
2024/02/18 00:39:51;;;;;;;4.00;2.15;;;;;;;3.00;100.00;101685.06;5053908;28;20538;-79
2024/02/18 00:42:16;;;;;;;0.85;0.85;;;;;;;3.16;100.00;101703.19;5056480;28;20041;-82
2024/02/18 00:44:42;;;;;;;1.42;1.33;;;;;;;3.52;100.00;101782.00;5056496;28;20045;-83
2024/02/18 00:47:07;;;;;;;3.33;3.15;;;;;;;3.65;100.00;101782.59;5056386;28;20095;-82
2024/02/18 00:49:33;;;;;;;0.50;0.50;;;;;;;3.62;100.00;101777.28;5054293;28;20129;-84
2024/02/18 00:51:59;;;;;;;0.73;0.73;;;;;;;3.44;100.00;101733.13;5057577;28;20048;-82
2024/02/18 00:54:24;;;;;;;0.30;0.30;;;;;;;3.61;100.00;101767.72;5056238;28;20040;-79
2024/02/18 00:56:50;;;;;;;1.67;1.58;;;;;;;3.38;100.00;101762.25;5064463;28;20033;-79
2024/02/18 00:59:19;;;;;;;22.85;11.95;;;;;;;3.49;100.00;101767.97;5052213;28;20342;-78
2024/02/18 01:01:44;;;;;;;5.00;4.80;;;;;;;2.86;100.00;101661.94;5054075;28;20165;-80
2024/02/18 01:04:10;;;;;;;1.23;1.13;;;;;;;3.48;100.00;101761.88;5056717;28;20159;-78
2024/02/18 01:06:36;;;;;;;4.40;4.18;;;;;;;3.47;100.00;101754.03;5060113;28;20620;-79
2024/02/18 01:09:02;;;;;;;15.57;14.32;;;;;;;3.43;100.00;101772.84;5055757;28;20037;-78
2024/02/18 01:11:28;;;;;;;1.08;1.08;;;;;;;3.08;100.00;101684.66;5060266;28;20040;-80
2024/02/18 01:13:53;;;;;;;0.82;0.82;;;;;;;3.47;100.00;101754.94;5047379;28;20124;-80
2024/02/18 01:16:19;;;;;;;1.85;0.65;;;;;;;2.97;100.00;101665.06;5054385;28;20132;-77
2024/02/18 01:18:45;;;;;;;0.88;0.85;;;;;;;3.45;100.00;101759.16;5060885;28;20121;-81
2024/02/18 01:21:13;;;;;;;0.95;0.95;;;;;;;3.45;100.00;101753.06;5061238;28;20079;-77
2024/02/18 01:23:38;;;;;;;1.25;1.15;;;;;;;3.49;100.00;101761.09;5060209;28;20047;-77
2024/02/18 01:26:04;;;;;;;2.13;2.03;;;;;;;3.42;100.00;101752.91;5056586;28;20053;-78
2024/02/18 01:28:30;;;;;;;15.80;14.20;;;;;;;2.87;100.00;101665.41;5039834;28;20155;-79
2024/02/18 01:30:55;;;;;;;26.58;13.35;;;;;;;3.17;100.00;101746.47;5052665;28;20059;-79
2024/02/18 01:33:23;;;;;;;4.25;3.92;;;;;;;2.82;100.00;101675.53;5057118;28;20558;-79
2024/02/18 01:35:49;;;;;;;10.23;9.57;;;;;;;2.68;100.00;101674.81;5061941;28;20108;-79
2024/02/18 01:38:15;;;;;;;1.95;1.85;;;;;;;3.43;100.00;101771.16;5051060;28;20057;-80
2024/02/18 01:40:41;;;;;;;1.88;1.77;;;;;;;3.33;100.00;101750.75;5050809;28;20508;-77
2024/02/18 01:43:07;;;;;;;3.47;3.28;;;;;;;3.39;100.00;101769.19;5055917;28;20055;-79
2024/02/18 01:45:32;;;;;;;2.47;2.38;;;;;;;3.37;100.00;101760.44;5054118;28;20068;-80
2024/02/18 01:47:59;;;;;;;0.40;0.40;;;;;;;3.22;100.00;101741.53;5055658;28;20395;-82
2024/02/18 01:50:25;;;;;;;1.70;1.60;;;;;;;3.42;100.00;101758.09;5056295;28;21124;-83
2024/02/18 01:52:52;;;;;;;2.40;2.22;;;;;;;2.93;100.00;101702.91;5056542;28;20040;-80
2024/02/18 01:55:20;;;;;;;0.55;0.55;;;;;;;2.90;100.00;101699.25;5063813;28;20048;-81
2024/02/18 01:57:46;;;;;;;27.33;8.73;;;;;;;3.43;100.00;101758.19;5057590;28;20489;-80
2024/02/18 02:00:15;;;;;;;2.75;2.55;;;;;;;3.27;100.00;101743.53;5061508;28;20041;-81
2024/02/18 02:02:44;;;;;;;1.50;1.48;;;;;;;2.82;100.00;101679.84;5054904;28;20047;-79
2024/02/18 02:05:13;;;;;;;14.25;13.05;;;;;;;3.39;100.00;101769.19;5051886;28;20090;-81
2024/02/18 02:07:39;;;;;;;1.95;1.85;;;;;;;2.99;100.00;101717.00;5054665;28;20056;-80
2024/02/18 02:10:11;;;;;;;1.95;1.42;;;;;;;2.99;100.00;101720.47;5054984;28;20048;-81
2024/02/18 02:12:41;;;;;;;0.40;0.40;;;;;;;3.41;100.00;101774.47;5056158;28;20041;-80
2024/02/18 02:15:09;;;;;;;0.73;0.73;;;;;;;3.12;100.00;101738.47;5051864;28;20043;-82
2024/02/18 02:17:34;;;;;;;3.05;2.95;;;;;;;2.54;100.00;101679.28;5060737;28;20049;-80
2024/02/18 02:20:00;;;;;;;0.60;0.60;;;;;;;2.80;100.00;101731.59;5048927;28;20051;-80
2024/02/18 02:22:26;;;;;;;0.43;0.43;;;;;;;2.78;100.00;101725.44;5047919;28;20080;-79
2024/02/18 02:24:52;;;;;;;8.68;7.93;;;;;;;3.07;100.00;101752.00;5050841;28;20056;-81
2024/02/18 02:27:23;;;;;;;2.55;2.45;;;;;;;2.76;100.00;101698.53;5071723;28;20535;-79
2024/02/18 02:29:50;;;;;;;3.15;2.63;;;;;;;3.30;100.00;101773.91;5056729;28;20051;-81
2024/02/18 02:32:15;;;;;;;18.20;10.35;;;;;;;3.02;100.00;101772.50;5053943;28;20057;-81
2024/02/18 02:34:41;;;;;;;17.30;14.15;;;;;;;3.19;100.00;101765.59;5055434;28;20052;-78
2024/02/18 02:37:06;;;;;;;0.30;0.30;;;;;;;3.27;100.00;101782.44;5057144;28;20124;-79
2024/02/18 02:39:32;;;;;;;14.80;13.73;;;;;;;2.56;100.00;101676.78;5055243;28;20084;-78
2024/02/18 02:42:00;;;;;;;3.97;3.72;;;;;;;2.76;100.00;101677.81;5063558;28;20051;-78
2024/02/18 02:44:25;;;;;;;5.88;5.45;;;;;;;2.52;100.00;101660.16;5056681;28;20075;-80
2024/02/18 02:46:51;;;;;;;5.32;3.28;;;;;;;3.01;100.00;101768.13;5058650;28;20056;-80
2024/02/18 02:49:16;;;;;;;0.35;0.35;;;;;;;2.87;100.00;101736.28;5061319;28;20066;-83
2024/02/18 02:51:43;;;;;;;1.67;1.58;;;;;;;2.56;100.00;101669.00;5063987;28;20083;-81
2024/02/18 02:54:09;;;;;;;3.42;3.30;;;;;;;2.67;100.00;101679.91;5073023;28;20366;-79
2024/02/18 02:56:35;;;;;;;2.60;2.45;;;;;;;3.15;100.00;101764.53;5061247;28;20072;-82
2024/02/18 02:59:00;;;;;;;1.65;1.55;;;;;;;2.70;100.00;101696.53;5052033;28;20259;-80
2024/02/18 03:01:26;;;;;;;2.53;2.38;;;;;;;2.27;100.00;101615.63;5066774;28;20520;-78
2024/02/18 03:03:51;;;;;;;5.30;5.00;;;;;;;3.20;100.00;101800.19;5067241;28;20049;-80
2024/02/18 03:06:17;;;;;;;1.48;1.38;;;;;;;3.23;100.00;101800.34;5062348;28;20087;-80
2024/02/18 03:08:43;;;;;;;2.58;2.45;;;;;;;2.49;100.00;101685.91;5070175;28;20578;-81
2024/02/18 03:11:09;;;;;;;1.33;1.20;;;;;;;3.14;100.00;101775.75;5064187;28;20406;-80
2024/02/18 03:13:36;;;;;;;6.53;6.13;;;;;;;3.05;100.00;101783.03;5061282;28;20055;-82
2024/02/18 03:16:02;;;;;;;3.20;2.97;;;;;;;2.88;100.00;101768.28;5059822;28;20084;-80
2024/02/18 03:18:28;;;;;;;3.10;1.65;;;;;;;3.17;100.00;101801.81;5060774;28;20028;-79
2024/02/18 03:20:54;;;;;;;1.08;1.08;;;;;;;2.84;100.00;101762.06;5060943;28;20020;-78
2024/02/18 03:23:19;;;;;;;9.18;1.63;;;;;;;3.13;100.00;101806.75;5054589;28;20143;-82
2024/02/18 03:25:45;;;;;;;5.07;4.78;;;;;;;3.09;100.00;101807.41;5050480;28;20047;-83
2024/02/18 03:28:11;;;;;;;0.63;0.63;;;;;;;2.59;100.00;101718.38;5054573;28;20075;-82
2024/02/18 03:30:37;;;;;;;4.75;4.32;;;;;;;3.06;100.00;101790.00;5059522;28;20503;-80
2024/02/18 03:33:03;;;;;;;2.90;2.80;;;;;;;3.23;100.00;101806.47;5059979;28;20123;-79
2024/02/18 03:35:28;;;;;;;2.95;2.72;;;;;;;3.04;100.00;101770.84;5056504;28;20053;-82
2024/02/18 03:37:56;;;;;;;11.38;10.82;;;;;;;3.26;100.00;101800.53;5051224;28;20510;-81
2024/02/18 03:40:22;;;;;;;4.22;3.97;;;;;;;2.99;100.00;101767.13;5058208;28;20110;-80
2024/02/18 03:42:48;;;;;;;0.93;0.93;;;;;;;2.41;100.00;101762.34;5059433;28;20045;-80
2024/02/18 03:45:14;;;;;;;6.78;6.18;;;;;;;2.52;100.00;101781.94;5055725;28;20579;-80
2024/02/18 03:47:42;;;;;;;5.10;4.22;;;;;;;2.92;100.00;101822.97;5055665;28;20102;-82
2024/02/18 03:50:07;;;;;;;4.68;4.35;;;;;;;3.02;100.00;101801.03;5054100;28;20051;-80
2024/02/18 03:52:33;;;;;;;11.15;8.68;;;;;;;2.37;100.00;101690.44;5065324;28;20053;-81
2024/02/18 03:54:58;;;;;;;20.00;9.65;;;;;;;2.32;100.00;101700.56;5059412;28;20127;-81
2024/02/18 03:57:24;;;;;;;0.68;0.68;;;;;;;2.18;100.00;101692.81;5054440;28;20427;-81
2024/02/18 03:59:49;;;;;;;3.35;3.25;;;;;;;2.91;100.00;101795.25;5061376;28;20063;-79
2024/02/18 04:02:15;;;;;;;2.60;2.15;;;;;;;2.41;100.00;101695.00;5055741;28;20102;-81
2024/02/18 04:04:41;;;;;;;4.68;4.38;;;;;;;2.28;100.00;101688.25;5054932;28;20147;-81
2024/02/18 04:07:08;;;;;;;1.05;0.95;;;;;;;2.74;100.00;101793.47;5059723;28;20455;-81
2024/02/18 04:09:34;;;;;;;1.15;1.15;;;;;;;2.72;100.00;101771.78;5058650;28;20057;-80
2024/02/18 04:11:59;;;;;;;1.50;1.48;;;;;;;2.83;100.00;101806.91;5059765;28;20025;-79
2024/02/18 04:14:25;;;;;;;12.98;12.15;;;;;;;2.81;100.00;101812.81;5059840;28;20504;-79
2024/02/18 04:16:50;;;;;;;3.80;2.80;;;;;;;2.02;100.00;101709.25;5058807;28;20041;-79
2024/02/18 04:19:16;;;;;;;1.38;1.35;;;;;;;2.61;100.00;101796.22;5053707;28;20056;-81
2024/02/18 04:21:41;;;;;;;16.55;8.85;;;;;;;2.27;100.00;101711.47;5053545;28;20129;-78
2024/02/18 04:24:07;;;;;;;6.93;2.58;;;;;;;2.90;100.00;101803.88;5058951;28;20517;-82
2024/02/18 04:26:33;;;;;;;1.52;1.42;;;;;;;2.71;100.00;101798.47;5056220;28;20533;-81
2024/02/18 04:28:58;;;;;;;3.58;3.35;;;;;;;2.86;100.00;101829.53;5053687;28;20048;-82
2024/02/18 04:31:24;;;;;;;4.03;1.05;;;;;;;2.83;100.00;101796.53;5067025;28;20060;-81
2024/02/18 04:33:50;;;;;;;3.25;3.05;;;;;;;2.36;100.00;101729.22;5058977;28;20041;-80
2024/02/18 04:36:16;;;;;;;5.18;4.88;;;;;;;2.25;100.00;101721.75;5066354;28;20044;-79
2024/02/18 04:38:46;;;;;;;3.83;2.28;;;;;;;2.23;100.00;101725.06;5078793;28;20040;-81
2024/02/18 04:41:13;;;;;;;2.53;2.35;;;;;;;2.67;100.00;101804.28;5055987;28;20053;-81
2024/02/18 04:43:39;;;;;;;8.23;7.88;;;;;;;2.86;100.00;101825.25;5051504;28;20514;-81
2024/02/18 04:46:04;;;;;;;0.40;0.40;;;;;;;2.90;100.00;101828.88;5058212;28;20048;-81
2024/02/18 04:48:30;;;;;;;0.60;0.60;;;;;;;2.92;100.00;101832.44;5055249;28;20037;-81
2024/02/18 04:50:55;;;;;;;1.95;1.85;;;;;;;2.33;100.00;101756.72;5061284;28;20032;-80
2024/02/18 04:53:21;;;;;;;0.50;0.50;;;;;;;2.68;100.00;101814.75;5060949;28;20129;-79
2024/02/18 04:55:46;;;;;;;0.75;0.75;;;;;;;2.14;100.00;101715.09;5054974;28;20264;-77
2024/02/18 04:58:12;;;;;;;41.50;13.55;;;;;;;2.08;100.00;101727.69;5047460;28;20105;-84
2024/02/18 05:00:37;;;;;;;1.85;1.75;;;;;;;2.17;100.00;101738.56;5054172;28;20072;-82
2024/02/18 05:03:03;;;;;;;1.73;1.65;;;;;;;2.83;100.00;101850.97;5059792;28;20031;-83
2024/02/18 05:05:29;;;;;;;2.85;2.72;;;;;;;2.74;100.00;101842.72;5054401;28;20071;-84
2024/02/18 05:07:54;;;;;;;0.70;0.70;;;;;;;2.62;100.00;101835.16;5058153;28;20545;-83
2024/02/18 05:10:20;;;;;;;0.80;0.80;;;;;;;2.26;100.00;101844.34;5055419;28;20052;-84
2024/02/18 05:12:46;;;;;;;1.13;1.13;;;;;;;2.67;100.00;101869.06;5055177;28;20056;-86
2024/02/18 05:15:12;;;;;;;1.70;1.60;;;;;;;1.77;100.00;101868.28;5062041;28;20351;-81
2024/02/18 05:17:39;;;;;;;6.93;6.40;;;;;;;1.25;100.00;101761.75;5050492;28;20043;-79
2024/02/18 05:20:09;;;;;;;0.85;0.85;;;;;;;1.07;100.00;101768.41;5061931;28;20135;-85
2024/02/18 05:22:39;;;;;;;1.70;1.60;;;;;;;1.73;100.00;101883.53;5059001;28;20048;-83
2024/02/18 05:25:04;;;;;;;13.85;10.93;;;;;;;1.62;100.00;101797.53;5057750;28;20036;-86
2024/02/18 05:27:30;;;;;;;1.77;1.67;;;;;;;2.26;100.00;101878.91;5075499;28;20017;-78
2024/02/18 05:29:55;;;;;;;0.77;0.77;;;;;;;1.81;100.00;101800.38;5080986;28;20032;-80
2024/02/18 05:32:22;;;;;;;4.03;3.83;;;;;;;2.25;100.00;101884.91;5072044;28;20337;-77
2024/02/18 05:34:48;;;;;;;2.78;2.67;;;;;;;1.37;100.00;101802.94;5064847;28;20094;-82
2024/02/18 05:37:14;;;;;;;2.67;2.58;;;;;;;1.29;100.00;101812.84;5059688;28;20527;-81
2024/02/18 05:39:39;;;;;;;0.82;0.82;;;;;;;1.23;100.00;101724.56;5065918;28;20086;-83
2024/02/18 05:42:06;;;;;;;3.53;3.33;;;;;;;1.22;100.00;101828.78;5063417;28;20031;-81
2024/02/18 05:44:32;;;;;;;2.72;2.15;;;;;;;1.40;100.00;101902.28;5064603;28;20056;-84
2024/02/18 05:46:58;;;;;;;5.18;4.88;;;;;;;0.86;100.00;101820.56;5066579;28;20133;-84
2024/02/18 05:49:24;;;;;;;2.53;2.38;;;;;;;0.80;100.00;101821.06;5059225;28;20043;-80
2024/02/18 05:51:53;;;;;;;0.93;0.93;;;;;;;0.70;100.00;101818.69;5060753;28;20048;-80
2024/02/18 05:54:23;;;;;;;0.55;0.55;;;;;;;1.31;100.00;101943.13;5061782;28;20033;-81
2024/02/18 05:56:49;;;;;;;2.58;2.47;;;;;;;0.81;100.00;101855.53;5058465;28;20043;-81
2024/02/18 05:59:15;;;;;;;2.00;1.92;;;;;;;1.50;100.00;101957.16;5059624;28;20052;-78
2024/02/18 06:01:42;;;;;;;6.82;6.47;;;;;;;1.19;100.00;101935.47;5055655;28;20068;-80
2024/02/18 06:04:08;;;;;;;3.58;3.38;;;;;;;0.51;100.00;101839.00;5058881;28;20067;-79
2024/02/18 06:06:34;;;;;;;3.00;2.80;;;;;;;0.54;100.00;101844.34;5060823;28;20104;-79
2024/02/18 06:08:59;;;;;;;0.82;0.82;;;;;;;0.80;100.00;101846.03;5066112;28;20503;-81
2024/02/18 06:11:25;;;;;;;2.90;2.80;;;;;;;1.47;100.00;101956.19;5063886;28;20044;-79
2024/02/18 06:13:51;;;;;;;13.95;12.77;;;;;;;0.68;100.00;101879.72;5056146;28;20041;-82
2024/02/18 06:16:17;;;;;;;0.40;0.40;;;;;;;0.67;100.00;101862.44;5056661;28;20052;-80
2024/02/18 06:18:42;;;;;;;4.45;3.95;;;;;;;1.00;100.00;101974.78;5056666;28;20052;-80
2024/02/18 06:21:08;;;;;;;8.02;7.53;;;;;;;1.35;100.00;101951.94;5060887;28;20031;-80
2024/02/18 06:23:33;;;;;;;0.85;0.85;;;;;;;0.98;100.00;101971.22;5055550;28;20094;-79
2024/02/18 06:26:02;;;;;;;1.08;1.08;;;;;;;0.75;100.00;101963.66;5066833;28;20036;-80
2024/02/18 06:28:32;;;;;;;0.88;0.88;;;;;;;0.75;100.00;101966.25;5062594;28;20083;-80
2024/02/18 06:31:01;;;;;;;6.25;5.40;;;;;;;0.27;100.00;101877.06;5057697;28;20121;-81
2024/02/18 06:33:27;;;;;;;31.75;21.50;;;;;;;0.56;100.00;101918.59;5063662;28;20044;-79
2024/02/18 06:35:55;;;;;;;13.27;12.43;;;;;;;0.97;100.00;101964.25;5066611;28;20535;-81
2024/02/18 06:38:20;;;;;;;2.15;2.05;;;;;;;1.20;100.00;101994.16;5054420;28;20095;-81
2024/02/18 06:40:46;;;;;;;1.52;1.42;;;;;;;1.30;100.00;101992.16;5060614;28;20630;-78
2024/02/18 06:43:11;;;;;;;1.65;1.55;;;;;;;1.46;100.00;102005.25;5060214;28;20809;-79
2024/02/18 06:45:37;;;;;;;2.75;2.35;;;;;;;0.58;100.00;101800.75;5058886;28;20527;-80
2024/02/18 06:48:03;;;;;;;4.13;3.92;;;;;;;1.60;100.00;101905.22;5058754;28;20487;-77
2024/02/18 06:50:29;;;;;;;1.38;1.27;;;;;;;2.37;100.00;101975.38;5063006;28;20032;-79
2024/02/18 06:52:55;;;;;;;13.00;12.10;;;;;;;2.39;100.00;102010.03;5060836;28;20047;-79
2024/02/18 06:55:21;;;;;;;0.75;0.75;;;;;;;1.90;100.00;101919.09;5060657;28;21156;-79
2024/02/18 06:57:46;;;;;;;2.28;2.17;;;;;;;2.58;100.00;101983.50;5062405;28;20052;-79
2024/02/18 07:00:12;;;;;;;13.35;12.38;;;;;;;2.40;100.00;101993.66;5063286;28;20035;-78
2024/02/18 07:02:38;;;;;;;1.42;1.33;;;;;;;2.22;100.00;101977.03;5077816;28;20037;-77
2024/02/18 07:05:04;;;;;;;1.70;1.58;;;;;;;2.44;100.00;101989.56;5057713;28;20041;-80
2024/02/18 07:07:30;;;;;;;9.63;5.78;;;;;;;2.03;100.00;101898.28;5063402;28;20055;-78
2024/02/18 07:09:57;;;;;;;8.68;8.02;;;;;;;2.38;100.00;102008.22;5065075;28;20052;-79
2024/02/18 07:12:22;;;;;;;16.40;15.45;;;;;;;2.32;100.00;101977.69;5059754;28;20036;-80
2024/02/18 07:14:48;;;;;;;5.47;4.95;;;;;;;2.56;100.00;102000.63;5068661;28;20117;-80
2024/02/18 07:17:19;;;;;;;6.43;5.97;;;;;;;2.84;100.00;101995.34;5061881;28;20369;-79
2024/02/18 07:19:49;;;;;;;9.45;6.57;;;;;;;2.30;100.00;101895.53;5057880;28;20056;-79
2024/02/18 07:22:17;;;;;;;5.22;4.93;;;;;;;2.57;100.00;102002.41;5064958;28;20488;-79
2024/02/18 07:24:43;;;;;;;0.65;0.65;;;;;;;2.17;100.00;101891.31;5062008;28;20048;-82
2024/02/18 07:27:09;;;;;;;1.17;1.17;;;;;;;1.79;100.00;101926.19;5056995;28;20047;-79
2024/02/18 07:29:35;;;;;;;1.08;1.08;;;;;;;2.28;100.00;101995.53;5061083;28;20053;-79
2024/02/18 07:32:01;;;;;;;10.55;9.98;;;;;;;1.75;100.00;101978.56;5059230;28;20076;-80
2024/02/18 07:34:26;;;;;;;18.20;11.00;;;;;;;1.55;100.00;101883.34;5058876;28;20065;-80
2024/02/18 07:36:54;;;;;;;6.40;5.93;;;;;;;2.24;100.00;101976.31;5060347;28;20150;-79
2024/02/18 07:39:20;;;;;;;8.77;5.03;;;;;;;2.01;100.00;102006.03;5054838;28;20061;-80
2024/02/18 07:41:46;;;;;;;16.02;15.13;;;;;;;1.68;100.00;101976.41;5059285;28;20032;-80
2024/02/18 07:44:12;;;;;;;4.22;2.58;;;;;;;1.74;100.00;101988.84;5060423;28;20076;-80
2024/02/18 07:46:38;;;;;;;1.40;1.30;;;;;;;2.02;100.00;102005.25;5057922;28;20041;-79
2024/02/18 07:49:04;;;;;;;7.72;7.32;;;;;;;1.60;100.00;101950.06;5066178;28;20480;-81
2024/02/18 07:51:29;;;;;;;11.15;10.48;;;;;;;1.40;100.00;101935.00;5070124;28;20024;-78
2024/02/18 07:53:55;;;;;;;1.95;1.85;;;;;;;1.41;100.00;101914.44;5083912;28;20056;-80
2024/02/18 07:56:21;;;;;;;5.72;5.22;;;;;;;1.92;100.00;101978.69;5072188;28;20045;-80
2024/02/18 07:58:48;;;;;;;10.10;9.45;;;;;;;2.13;100.00;101986.84;5057904;28;20202;-83
2024/02/18 08:01:15;;;;;;;25.35;19.38;;;;;;;1.69;100.00;101918.69;5064758;28;20690;-83
2024/02/18 08:03:41;;;;;;;25.15;22.23;;;;;;;1.36;100.00;101920.09;5078002;28;20097;-81
2024/02/18 08:06:09;;;;;;;2.28;2.08;;;;;;;1.57;100.00;101996.47;5070957;28;20025;-83
2024/02/18 08:08:37;;;;;;;3.72;3.47;;;;;;;1.09;100.00;101890.88;5060836;28;20048;-82
2024/02/18 08:11:02;;;;;;;25.30;12.90;;;;;;;1.74;100.00;101900.88;5062919;28;20128;-81
2024/02/18 08:13:28;;;;;;;5.85;5.53;;;;;;;2.88;100.00;102018.06;5051613;28;20143;-83
2024/02/18 08:15:56;;;;;;;4.07;3.85;;;;;;;2.97;100.00;102004.69;5062269;28;20487;-79
2024/02/18 08:18:21;;;;;;;12.20;11.57;;;;;;;2.74;100.00;101956.75;5056752;28;20626;-80
2024/02/18 08:20:47;;;;;;;11.45;10.93;;;;;;;2.30;100.00;101908.47;5056948;28;20039;-81
2024/02/18 08:23:13;;;;;;;22.17;19.83;;;;;;;2.53;100.00;101870.94;5062723;28;20423;-82
2024/02/18 08:25:38;;;;;;;1.65;1.55;;;;;;;1.82;100.00;101848.75;5061857;28;20136;-80
2024/02/18 08:28:04;;;;;;;8.05;4.18;;;;;;;2.57;100.00;101989.47;5060772;28;20063;-81
2024/02/18 08:30:30;;;;;;;0.50;0.50;;;;;;;2.78;100.00;101950.91;5056039;28;20059;-75
2024/02/18 08:32:57;;;;;;;2.40;2.20;;;;;;;2.91;100.00;101930.06;5061568;28;20052;-77
2024/02/18 08:35:23;;;;;;;1.30;1.20;;;;;;;3.47;100.00;101992.75;5059338;28;20052;-79
2024/02/18 08:37:50;;;;;;;6.00;5.70;;;;;;;2.95;100.00;101900.03;5058082;28;20051;-82
2024/02/18 08:40:18;;;;;;;0.60;0.60;;;;;;;3.20;100.00;101929.88;5061597;28;20053;-82
2024/02/18 08:42:46;;;;;;;9.80;9.05;;;;;;;3.40;100.00;101965.59;5056569;28;20053;-84
2024/02/18 08:45:11;;;;;;;8.65;8.05;;;;;;;2.79;100.00;101856.81;5064752;28;20567;-81
2024/02/18 08:47:37;;;;;;;1.92;1.83;;;;;;;2.71;100.00;101865.84;5061140;28;20127;-79
2024/02/18 08:50:02;;;;;;;18.92;17.27;;;;;;;2.63;100.00;101831.75;5046614;28;20052;-84
2024/02/18 08:52:28;;;;;;;5.85;5.55;;;;;;;2.15;100.00;101829.91;5055319;28;20052;-85
2024/02/18 08:54:54;;;;;;;5.82;5.55;;;;;;;2.64;100.00;101949.25;5055001;28;20439;-83
2024/02/18 08:57:19;;;;;;;10.98;10.43;;;;;;;2.48;100.00;101812.75;5053867;28;20040;-84
2024/02/18 08:59:45;;;;;;;19.52;5.75;;;;;;;2.78;100.00;101830.81;5057555;28;20027;-86
2024/02/18 09:02:10;;;;;;;5.05;4.63;;;;;;;3.50;100.00;101954.88;5058368;28;20052;-85
2024/02/18 09:04:36;;;;;;;6.50;5.88;;;;;;;3.67;100.00;101984.31;5056701;28;20091;-84
2024/02/18 09:07:03;;;;;;;4.43;4.13;;;;;;;3.93;100.00;102003.91;5043913;28;20061;-84
2024/02/18 09:09:28;;;;;;;3.83;3.50;;;;;;;3.40;100.00;101911.09;5059721;28;20182;-86
2024/02/18 09:11:54;;;;;;;5.32;4.80;;;;;;;4.09;100.00;102007.28;5060656;28;20115;-83
2024/02/18 09:14:20;;;;;;;2.33;2.15;;;;;;;3.67;100.00;101980.84;5055649;28;20776;-85
2024/02/18 09:16:45;;;;;;;7.55;7.05;;;;;;;3.02;100.00;102002.34;5058663;28;20048;-86
2024/02/18 09:19:11;;;;;;;4.13;3.90;;;;;;;2.61;100.00;101926.66;5055844;28;20068;-83
2024/02/18 09:21:36;;;;;;;2.50;2.33;;;;;;;3.28;100.00;102019.41;5053904;28;20037;-83
2024/02/18 09:24:02;;;;;;;7.88;7.22;;;;;;;3.34;100.00;102023.19;5057036;28;20029;-78
2024/02/18 09:26:28;;;;;;;2.70;2.60;;;;;;;2.90;100.00;102036.25;5059733;28;20048;-84
2024/02/18 09:28:53;;;;;;;16.65;7.32;;;;;;;2.99;100.00;102044.56;5060666;28;20044;-83
2024/02/18 09:31:19;;;;;;;18.83;17.38;;;;;;;2.67;100.00;102004.75;5058016;28;20055;-79
2024/02/18 09:33:44;;;;;;;11.13;10.15;;;;;;;2.74;100.00;101931.72;5061815;28;20133;-82
2024/02/18 09:36:11;;;;;;;2.58;2.47;;;;;;;3.76;100.00;102009.88;5061435;28;20050;-81
2024/02/18 09:38:40;;;;;;;4.13;3.92;;;;;;;3.35;100.00;101980.03;5053851;28;20100;-84
2024/02/18 09:41:08;;;;;;;4.28;3.42;;;;;;;3.65;100.00;102026.59;5049726;28;20033;-82
2024/02/18 09:43:41;;;;;;;9.82;9.23;;;;;;;4.15;100.00;102037.06;5059565;28;20132;-81
2024/02/18 09:46:08;;;;;;;3.83;3.53;;;;;;;3.90;100.00;101956.97;5059654;28;20043;-83
2024/02/18 09:48:36;;;;;;;2.90;2.75;;;;;;;4.67;100.00;102028.44;5061139;28;20118;-78
2024/02/18 09:51:04;;;;;;;9.05;8.40;;;;;;;4.18;100.00;102031.16;5058264;28;20047;-83
2024/02/18 09:53:32;;;;;;;17.50;16.20;;;;;;;4.58;100.00;102025.38;5060447;28;20102;-82
2024/02/18 09:55:59;;;;;;;2.13;2.03;;;;;;;4.93;100.00;102010.66;5060622;28;20044;-81
2024/02/18 09:58:25;;;;;;;50.30;23.63;;;;;;;5.20;100.00;102011.09;5051329;28;20070;-80
2024/02/18 10:00:52;;;;;;;6.72;6.13;;;;;;;5.06;100.00;102008.72;5059483;28;20041;-81
2024/02/18 10:03:18;;;;;;;1.80;1.58;;;;;;;4.11;100.00;101997.88;5061909;28;20354;-82
2024/02/18 10:05:43;;;;;;;1.38;1.30;;;;;;;3.62;100.00;101902.72;5059205;28;20077;-83
2024/02/18 10:08:09;;;;;;;2.05;1.85;;;;;;;4.19;100.00;101887.44;5059540;28;20049;-78
2024/02/18 10:10:35;;;;;;;22.35;18.60;;;;;;;4.22;100.00;101895.41;5061514;28;20051;-79
2024/02/18 10:13:03;;;;;;;3.67;3.47;;;;;;;4.62;100.00;101954.53;5050274;28;20044;-80
2024/02/18 10:15:29;;;;;;;11.18;10.32;;;;;;;5.45;100.00;101977.56;5061522;28;20032;-81
2024/02/18 10:17:54;;;;;;;8.82;8.25;;;;;;;5.48;100.00;101959.50;5060123;28;20032;-79
2024/02/18 10:20:20;;;;;;;7.85;7.43;;;;;;;5.68;100.00;101946.47;5059665;28;20102;-81
2024/02/18 10:22:45;;;;;;;23.30;16.65;;;;;;;5.26;100.00;101840.50;5059772;28;20557;-78
2024/02/18 10:25:11;;;;;;;2.80;2.08;;;;;;;5.04;100.00;101924.50;5059814;28;20037;-78
2024/02/18 10:27:37;;;;;;;5.13;4.80;;;;;;;4.94;100.00;101963.91;5050936;28;20139;-77
2024/02/18 10:30:03;;;;;;;12.45;11.63;;;;;;;5.68;100.00;101973.41;5051601;28;20021;-79
2024/02/18 10:32:30;;;;;;;4.13;3.83;;;;;;;5.52;100.00;101858.09;5050303;28;20151;-78
2024/02/18 10:34:56;;;;;;;5.38;5.07;;;;;;;6.51;100.00;101969.22;5056419;28;20496;-80
2024/02/18 10:37:41;;;;;;;3.38;3.15;;;;;;;5.77;100.00;101959.91;5057889;28;20063;-76
2024/02/18 10:40:25;;;;;;;7.05;6.70;;;;;;;5.38;100.00;101899.13;5059959;28;20044;-79
2024/02/18 10:42:52;;;;;;;3.65;3.47;;;;;;;5.95;100.00;101871.31;5060861;28;20067;-81
2024/02/18 10:45:21;;;;;;;6.80;6.30;;;;;;;6.85;100.00;101930.56;5060867;28;20504;-82
2024/02/18 10:47:52;;;;;;;6.40;5.78;;;;;;;5.79;100.00;101782.88;5056403;28;20159;-82
2024/02/18 10:50:17;;;;;;;8.93;6.30;;;;;;;6.11;100.00;101909.28;5055862;28;20514;-77
2024/02/18 10:52:54;;;;;;;1.70;1.60;;;;;;;6.24;100.00;101931.56;5052830;28;20067;-78
2024/02/18 10:55:45;;;;;;;1.95;1.85;;;;;;;6.84;100.00;101895.78;5059619;28;20059;-78
2024/02/18 10:58:30;;;;;;;2.25;2.15;;;;;;;6.31;100.00;101910.13;5052223;28;20037;-77
2024/02/18 11:01:01;;;;;;;5.47;5.15;;;;;;;6.93;100.00;101901.34;5061448;28;20055;-80
2024/02/18 11:03:38;;;;;;;3.75;3.55;;;;;;;6.58;100.00;101792.13;5060265;28;20090;-78
2024/02/18 11:06:03;;;;;;;0.85;0.85;;;;;;;7.29;100.00;101908.78;5049940;28;20556;-77
2024/02/18 11:08:32;;;;;;;3.80;3.60;;;;;;;7.32;100.00;101924.56;5042891;28;20053;-78
2024/02/18 11:10:58;;;;;;;4.32;4.00;;;;;;;5.76;100.00;101768.03;5053706;28;20036;-78
2024/02/18 11:13:25;;;;;;;2.50;2.40;;;;;;;6.67;100.00;101800.31;5059705;28;20381;-77
2024/02/18 11:15:51;;;;;;;2.42;2.30;;;;;;;7.03;100.00;101816.47;5067122;28;20147;-77
2024/02/18 11:18:17;;;;;;;1.23;1.17;;;;;;;6.80;100.00;101820.81;5061904;28;20110;-75